Terminal Aerodrome Forecast
Issued by NWS Boston, MA

Home | Current Version | Previous Version | Text Only | Print | Product List | Glossary On
Versions: 1 2 3 4 5 6 7 8 9 10 11 12 13 14 15 16 17 18 19 20 21
000
FTUS41 KBOX 242037 AAC
TAFBDL
TAF AMD
KBDL 242037Z 2421/2524 01009KT P6SM VCSH FEW006 BKN023 OVC035
     FM242300 03007KT P6SM VCSH OVC015
     FM251100 02005KT P6SM OVC015
     FM251700 01006KT P6SM BKN035=

USA.gov is the U.S. government's official web portal to all federal, state and local government web resources and services.